Hamilton Island, Queensland

8:44 PM EST on August 23, 2014 (GMT +1000)
Hamilton Island | Change Station
CLOSE
Current Station
Airport
Location: Hamilton Island,
Elevation: 16 ft
Nearby Weather Stations

Elev 16 ft 20.36 °S, 148.95 °E | Updated 14 minutes ago

Clear
Clear
66 °F
Feels Like 66 °F
N
9
Wind Variable Wind from SE

Today
High -- | Low -- °F
--% Chance of Precip.
Yesterday
High -- | Low -- °F
Precip. -- in
6:20 AM 5:53 PM
Waning Crescent, 4% visible
Pressure 30.12 in
Visibility 6.2 miles
Clouds
Dew Point 61 °F
Humidity 83%
Rainfall 0.00 in
Snow Depth Not available.
UV Not available.
Pollen Not available.
Air Quality Not available.
Flu Activity Not available.
METAR YBHM 231030Z AUTO 13008KT 9999 // NCD 19/16 Q1020

More Conditions Fewer Conditions

Pressure 30.12 in
Visibility 6.2 miles
Clouds
Dew Point 61 °F
Humidity 83%
Rainfall 0.00 in
Snow Depth Not available.
UV Not available.
Pollen Not available.
Air Quality Not available.
Flu Activity Not available.
METAR YBHM 231030Z AUTO 13008KT 9999 // NCD 19/16 Q1020

More Conditions Fewer Conditions

10-Day Weather Forecast

Almanac

Astronomy

Aug. 23, 2014 Rise Set
Actual Time 6:20 AM EST 5:53 PM EST
Civil Twilight 5:58 AM EST 6:15 PM EST
Nautical Twilight 5:32 AM EST 6:41 PM EST
Astronomical Twilight 5:06 AM EST 7:07 PM EST
Moon 4:23 AM EST 3:58 PM EST
Length of Visible Light 12h 17m
Length of Day
11h 32m
Tomorrow will be 1m 3s longer.
Waning Crescent, 4% of the Moon is Illuminated
Today
Waning Crescent
Aug 25
New
Sep 2
First Quarter
Sep 8
Full
Sep 15
Last Quarter

Yesterday's Extremes

Country Highs Country Lows

Community

WunderPhotos

Upload Photos

1,746,396 photos uploaded!

WunderBlogs® & News

By Dr. Jeff Masters
Director of Meteorology, Weather Underground
By Kari Strenfel
Meteorologist, Weather Underground
By Christopher C. Burt
Weather Historian, Weather Underground
August 23, 2014
August 23, 2014
August 23, 2014

Nearby

Snow Depth

Not available.

Earthquake Activity

City Distance Mag. Time & Date
No recent earthquake activity has been reported nearby.
Minimum magnitude displayed is 2.5.

Coastal Water Temperatures

Place Temperature
No Stations Reporting

Nearby Weather Stations